Etusivu
METAR-TAF:

METAR-TAF

Lentoasemat :

Zagreb, Kroatia

Franjo Tuđmanin lentoasema

Leveyspiiri: 45-44N, Pituuspiiri: 016-04E, korkeus merenpinnasta: 106 m

Tämänhetkinen sää

Tämä raportti tehtiin 15 minuuttia sitten, kello 07.30 UTC
Tuuli 14 kn koillisesta puuskistuen 24 kn:hen, vaihdellen pohjoisen ja idän välillä
Lämpötila -7°C
Kosteus 67%
Ilmanpaine 1023 hPa
Näkyvyys 10 km tai enemmän
Hajonneita pilviä 4000 ft:n korkeudessa
heikkoa lumisadetta, matalaa lumituiskua

METAR: LDZA 250730Z 05014G24KT 010V080 9999 -SN DRSN BKN040 M07/M12 Q1023 R05/////// NOSIG

Aika: 08:45 (07:45 UTC)

Sääennuste

Tämä raportti tehtiin 2 tuntia ja 20 minuuttia sitten, kello 05.25 UTC
Ennuste voimassa 25. päivästä klo 06 UTC - 26. päivään klo 06 UTC
Tuuli 15 kn koillisesta
Näkyvyys 10 km tai enemmän
Hajonneita pilviä 4000 ft:n korkeudessa

TAF: LDZA 250525Z 2506/2606 04015KT 9999 BKN040 TXM04/2513Z TNM10/2605Z

Säähavainnot ja -ennusteet yli 4000 lentoasemalta (METAR- ja TAF-raportit).

Käytössä olevat sääasemat on merkitty karttaan keltaisilla ja punaisilla pisteillä.

Aseta hiiri pisteen päälle nähdäksesi sääaseman nimen.

Klikkaa sitten nähdäksesi säähavainnot ja -ennusteet.

Kartan vaihtaminen: klikkaa mustalla rastilla varustettuja vihreitä pisteitä, niin voit zoomata sisään; viivalla varustettua vihreää pistettä, niin voit zoomata ulos tai vihreitä nuolia, niin pääset viereisille kartoille.


METAR-TAF: